sensor_id;sensor_type;location;lat;lon;timestamp;pressure;altitude;pressure_sealevel;temperature;humidity
49759;BME280;35654;46.080;11.118;2023-04-02T00:00:34;98461.75;;;11.77;54.11
49759;BME280;35654;46.080;11.118;2023-04-02T00:03:07;98456.25;;;11.85;53.65
49759;BME280;35654;46.080;11.118;2023-04-02T00:05:43;98459.31;;;11.84;53.83
49759;BME280;35654;46.080;11.118;2023-04-02T00:08:21;98453.03;;;11.83;54.20
49759;BME280;35654;46.080;11.118;2023-04-02T00:10:50;98457.88;;;11.78;53.40
49759;BME280;35654;46.080;11.118;2023-04-02T00:13:28;98459.34;;;11.75;53.61
49759;BME280;35654;46.080;11.118;2023-04-02T00:16:02;98461.09;;;11.80;53.41
49759;BME280;35654;46.080;11.118;2023-04-02T00:18:30;98456.75;;;11.70;53.40
49759;BME280;35654;46.080;11.118;2023-04-02T00:21:13;98464.63;;;11.63;53.92
49759;BME280;35654;46.080;11.118;2023-04-02T00:23:44;98464.94;;;11.61;54.13
49759;BME280;35654;46.080;11.118;2023-04-02T00:29:12;98462.72;;;11.55;53.83
49759;BME280;35654;46.080;11.118;2023-04-02T00:31:43;98464.94;;;11.61;53.78
49759;BME280;35654;46.080;11.118;2023-04-02T00:34:20;98468.22;;;11.72;53.55
49759;BME280;35654;46.080;11.118;2023-04-02T00:36:47;98472.56;;;11.73;53.29
49759;BME280;35654;46.080;11.118;2023-04-02T00:39:17;98476.41;;;11.63;53.38
49759;BME280;35654;46.080;11.118;2023-04-02T00:41:43;98471.56;;;11.60;54.05
49759;BME280;35654;46.080;11.118;2023-04-02T00:44:12;98473.50;;;11.51;54.05
49759;BME280;35654;46.080;11.118;2023-04-02T00:46:42;98469.00;;;11.55;54.52
49759;BME280;35654;46.080;11.118;2023-04-02T00:49:31;98467.03;;;11.47;54.01
49759;BME280;35654;46.080;11.118;2023-04-02T00:52:05;98459.63;;;11.48;53.33
49759;BME280;35654;46.080;11.118;2023-04-02T00:54:36;98463.00;;;11.53;52.79
49759;BME280;35654;46.080;11.118;2023-04-02T00:57:05;98469.13;;;11.59;53.08
49759;BME280;35654;46.080;11.118;2023-04-02T00:59:47;98472.53;;;11.64;53.18
49759;BME280;35654;46.080;11.118;2023-04-02T01:02:20;98469.00;;;11.64;53.36
49759;BME280;35654;46.080;11.118;2023-04-02T01:10:39;98473.84;;;11.41;54.22
49759;BME280;35654;46.080;11.118;2023-04-02T01:16:26;98476.41;;;11.38;55.02
49759;BME280;35654;46.080;11.118;2023-04-02T01:18:53;98470.44;;;11.27;55.00
49759;BME280;35654;46.080;11.118;2023-04-02T01:24:08;98479.63;;;11.31;55.70
49759;BME280;35654;46.080;11.118;2023-04-02T01:26:54;98479.63;;;11.40;55.72
49759;BME280;35654;46.080;11.118;2023-04-02T01:29:30;98479.78;;;11.43;55.43
49759;BME280;35654;46.080;11.118;2023-04-02T01:32:02;98476.25;;;11.43;54.91
49759;BME280;35654;46.080;11.118;2023-04-02T01:34:30;98480.09;;;11.42;55.08
49759;BME280;35654;46.080;11.118;2023-04-02T01:39:59;98479.78;;;11.26;55.85
49759;BME280;35654;46.080;11.118;2023-04-02T01:42:36;98477.38;;;11.25;56.04
49759;BME280;35654;46.080;11.118;2023-04-02T01:45:13;98476.06;;;11.22;55.85
49759;BME280;35654;46.080;11.118;2023-04-02T01:47:41;98470.72;;;11.17;55.79
49759;BME280;35654;46.080;11.118;2023-04-02T01:52:55;98479.09;;;11.03;56.57
49759;BME280;35654;46.080;11.118;2023-04-02T01:55:31;98484.41;;;10.91;56.58
49759;BME280;35654;46.080;11.118;2023-04-02T01:57:58;98494.69;;;10.86;56.05
49759;BME280;35654;46.080;11.118;2023-04-02T02:00:26;98485.81;;;10.89;56.08
49759;BME280;35654;46.080;11.118;2023-04-02T02:02:57;98494.03;;;10.80;55.80
49759;BME280;35654;46.080;11.118;2023-04-02T02:05:25;98490.47;;;10.80;55.52
49759;BME280;35654;46.080;11.118;2023-04-02T02:07:53;98494.03;;;10.80;55.84
49759;BME280;35654;46.080;11.118;2023-04-02T02:10:31;98495.00;;;10.84;55.86
49759;BME280;35654;46.080;11.118;2023-04-02T02:15:37;98499.97;;;10.74;55.94
49759;BME280;35654;46.080;11.118;2023-04-02T02:18:05;98511.69;;;10.66;56.36
49759;BME280;35654;46.080;11.118;2023-04-02T02:20:31;98506.84;;;10.63;56.33
49759;BME280;35654;46.080;11.118;2023-04-02T02:23:00;98513.13;;;10.63;56.47
49759;BME280;35654;46.080;11.118;2023-04-02T02:25:30;98506.22;;;10.66;56.72
49759;BME280;35654;46.080;11.118;2023-04-02T02:28:16;98505.06;;;10.67;56.99
49759;BME280;35654;46.080;11.118;2023-04-02T02:33:42;98515.78;;;10.46;57.53
49759;BME280;35654;46.080;11.118;2023-04-02T02:39:12;98503.59;;;10.21;57.78
49759;BME280;35654;46.080;11.118;2023-04-02T02:41:59;98514.88;;;10.28;57.55
49759;BME280;35654;46.080;11.118;2023-04-02T02:44:36;98516.69;;;10.33;57.35
49759;BME280;35654;46.080;11.118;2023-04-02T02:47:27;98525.25;;;10.40;56.35
49759;BME280;35654;46.080;11.118;2023-04-02T02:49:54;98524.91;;;10.41;56.19
49759;BME280;35654;46.080;11.118;2023-04-02T02:52:29;98522.28;;;10.28;57.79
49759;BME280;35654;46.080;11.118;2023-04-02T02:54:58;98530.28;;;10.16;58.58
49759;BME280;35654;46.080;11.118;2023-04-02T02:57:27;98534.22;;;10.10;59.06
49759;BME280;35654;46.080;11.118;2023-04-02T02:59:57;98530.47;;;10.06;59.32
49759;BME280;35654;46.080;11.118;2023-04-02T03:02:24;98532.53;;;10.00;59.38
49759;BME280;35654;46.080;11.118;2023-04-02T03:04:52;98539.44;;;9.98;59.71
49759;BME280;35654;46.080;11.118;2023-04-02T03:07:21;98542.34;;;10.01;59.25
49759;BME280;35654;46.080;11.118;2023-04-02T03:12:40;98543.03;;;10.07;58.76
49759;BME280;35654;46.080;11.118;2023-04-02T03:18:13;98555.41;;;10.04;59.34
49759;BME280;35654;46.080;11.118;2023-04-02T03:23:22;98558.00;;;9.87;60.38
49759;BME280;35654;46.080;11.118;2023-04-02T03:28:40;98554.09;;;9.79;60.70
49759;BME280;35654;46.080;11.118;2023-04-02T03:31:24;98562.78;;;9.81;60.48
49759;BME280;35654;46.080;11.118;2023-04-02T03:33:57;98566.97;;;9.79;60.48
49759;BME280;35654;46.080;11.118;2023-04-02T03:37:25;98568.81;;;9.70;61.05
49759;BME280;35654;46.080;11.118;2023-04-02T03:39:29;98574.28;;;9.70;61.74
49759;BME280;35654;46.080;11.118;2023-04-02T03:41:57;98574.88;;;9.67;62.05
49759;BME280;35654;46.080;11.118;2023-04-02T03:44:30;98579.66;;;9.61;62.52
49759;BME280;35654;46.080;11.118;2023-04-02T03:49:55;98577.84;;;9.57;62.92
49759;BME280;35654;46.080;11.118;2023-04-02T03:52:28;98589.59;;;9.57;62.34
49759;BME280;35654;46.080;11.118;2023-04-02T03:54:56;98579.56;;;9.53;62.96
49759;BME280;35654;46.080;11.118;2023-04-02T04:00:07;98577.38;;;9.41;63.01
49759;BME280;35654;46.080;11.118;2023-04-02T04:05:25;98596.34;;;9.24;64.46
49759;BME280;35654;46.080;11.118;2023-04-02T04:07:55;98601.38;;;9.03;65.61
49759;BME280;35654;46.080;11.118;2023-04-02T04:10:26;98601.59;;;9.07;65.56
49759;BME280;35654;46.080;11.118;2023-04-02T04:12:54;98604.41;;;9.02;66.14
49759;BME280;35654;46.080;11.118;2023-04-02T04:18:15;98613.41;;;8.89;66.39
49759;BME280;35654;46.080;11.118;2023-04-02T04:21:30;98615.84;;;8.90;66.60
49759;BME280;35654;46.080;11.118;2023-04-02T04:23:41;98624.22;;;8.94;66.33
49759;BME280;35654;46.080;11.118;2023-04-02T04:26:20;98625.53;;;8.96;66.01
49759;BME280;35654;46.080;11.118;2023-04-02T04:28:53;98629.28;;;9.00;65.76
49759;BME280;35654;46.080;11.118;2023-04-02T04:34:09;98636.66;;;9.00;65.87
49759;BME280;35654;46.080;11.118;2023-04-02T04:36:40;98644.03;;;8.99;65.72
49759;BME280;35654;46.080;11.118;2023-04-02T04:39:14;98645.19;;;8.98;66.03
49759;BME280;35654;46.080;11.118;2023-04-02T04:41:43;98645.47;;;8.97;66.05
49759;BME280;35654;46.080;11.118;2023-04-02T04:47:15;98650.25;;;8.59;67.79
49759;BME280;35654;46.080;11.118;2023-04-02T04:49:46;98660.66;;;8.57;68.13
49759;BME280;35654;46.080;11.118;2023-04-02T04:52:25;98662.38;;;8.53;68.35
49759;BME280;35654;46.080;11.118;2023-04-02T04:54:57;98661.84;;;8.51;68.67
49759;BME280;35654;46.080;11.118;2023-04-02T04:57:33;98668.31;;;8.55;68.40
49759;BME280;35654;46.080;11.118;2023-04-02T05:03:01;98674.81;;;8.59;68.34
49759;BME280;35654;46.080;11.118;2023-04-02T05:05:32;98673.91;;;8.63;68.19
49759;BME280;35654;46.080;11.118;2023-04-02T05:08:21;98671.09;;;8.68;67.73
49759;BME280;35654;46.080;11.118;2023-04-02T05:10:55;98678.78;;;8.66;67.70
49759;BME280;35654;46.080;11.118;2023-04-02T05:18:55;98687.31;;;8.78;65.14
49759;BME280;35654;46.080;11.118;2023-04-02T05:21:31;98682.06;;;8.82;65.10
49759;BME280;35654;46.080;11.118;2023-04-02T05:26:45;98685.59;;;8.83;64.22
49759;BME280;35654;46.080;11.118;2023-04-02T05:29:19;98685.09;;;8.81;63.69
49759;BME280;35654;46.080;11.118;2023-04-02T05:32:06;98689.31;;;8.73;63.70
49759;BME280;35654;46.080;11.118;2023-04-02T05:34:37;98690.63;;;8.75;63.81
49759;BME280;35654;46.080;11.118;2023-04-02T05:37:06;98687.31;;;8.78;64.11
49759;BME280;35654;46.080;11.118;2023-04-02T05:39:37;98688.91;;;8.79;64.47
49759;BME280;35654;46.080;11.118;2023-04-02T05:42:14;98690.13;;;8.73;64.99
49759;BME280;35654;46.080;11.118;2023-04-02T05:44:53;98697.38;;;8.64;65.36
49759;BME280;35654;46.080;11.118;2023-04-02T05:47:27;98702.69;;;8.56;65.60
49759;BME280;35654;46.080;11.118;2023-04-02T05:50:15;98703.06;;;8.49;65.06
49759;BME280;35654;46.080;11.118;2023-04-02T05:52:50;98716.63;;;8.54;64.91
49759;BME280;35654;46.080;11.118;2023-04-02T05:58:24;98714.75;;;8.68;64.99
49759;BME280;35654;46.080;11.118;2023-04-02T06:03:27;98725.41;;;8.70;64.09
49759;BME280;35654;46.080;11.118;2023-04-02T06:05:59;98727.13;;;8.79;63.56
49759;BME280;35654;46.080;11.118;2023-04-02T06:08:39;98727.66;;;8.82;63.02
49759;BME280;35654;46.080;11.118;2023-04-02T06:11:12;98733.25;;;8.90;61.83
49759;BME280;35654;46.080;11.118;2023-04-02T06:13:42;98731.44;;;8.99;61.18
49759;BME280;35654;46.080;11.118;2023-04-02T06:16:12;98732.97;;;9.05;60.83
49759;BME280;35654;46.080;11.118;2023-04-02T06:18:39;98726.81;;;9.13;59.90
49759;BME280;35654;46.080;11.118;2023-04-02T06:21:07;98727.22;;;9.20;59.53
49759;BME280;35654;46.080;11.118;2023-04-02T06:23:42;98729.06;;;9.25;59.14
49759;BME280;35654;46.080;11.118;2023-04-02T06:31:49;98732.00;;;9.42;57.87
49759;BME280;35654;46.080;11.118;2023-04-02T06:34:18;98731.81;;;9.52;57.80
49759;BME280;35654;46.080;11.118;2023-04-02T06:36:46;98737.28;;;9.66;56.66
49759;BME280;35654;46.080;11.118;2023-04-02T06:39:19;98728.88;;;9.76;55.88
49759;BME280;35654;46.080;11.118;2023-04-02T06:44:35;98741.00;;;9.97;55.02
49759;BME280;35654;46.080;11.118;2023-04-02T06:47:03;98742.22;;;10.05;54.36
49759;BME280;35654;46.080;11.118;2023-04-02T06:49:39;98742.84;;;10.15;53.98
49759;BME280;35654;46.080;11.118;2023-04-02T06:52:27;98750.59;;;10.22;53.62
49759;BME280;35654;46.080;11.118;2023-04-02T06:54:55;98752.94;;;10.28;53.56
49759;BME280;35654;46.080;11.118;2023-04-02T06:57:22;98758.28;;;10.33;53.29
49759;BME280;35654;46.080;11.118;2023-04-02T06:59:48;98760.00;;;10.43;52.97
49759;BME280;35654;46.080;11.118;2023-04-02T07:04:50;98754.34;;;10.62;51.94
49759;BME280;35654;46.080;11.118;2023-04-02T07:07:16;98750.56;;;10.71;51.17
49759;BME280;35654;46.080;11.118;2023-04-02T07:09:43;98756.78;;;10.85;50.79
49759;BME280;35654;46.080;11.118;2023-04-02T07:12:13;98761.03;;;10.91;50.24
49759;BME280;35654;46.080;11.118;2023-04-02T07:14:39;98772.16;;;10.95;50.14
49759;BME280;35654;46.080;11.118;2023-04-02T07:17:09;98769.00;;;11.01;50.22
49759;BME280;35654;46.080;11.118;2023-04-02T07:19:39;98774.75;;;11.00;49.88
49759;BME280;35654;46.080;11.118;2023-04-02T07:22:07;98775.91;;;10.99;49.81
49759;BME280;35654;46.080;11.118;2023-04-02T07:24:33;98777.00;;;10.98;49.64
49759;BME280;35654;46.080;11.118;2023-04-02T07:27:00;98773.97;;;10.99;49.42
49759;BME280;35654;46.080;11.118;2023-04-02T07:29:26;98780.63;;;11.07;49.21
49759;BME280;35654;46.080;11.118;2023-04-02T07:31:53;98773.44;;;11.20;49.14
49759;BME280;35654;46.080;11.118;2023-04-02T07:34:19;98776.81;;;11.39;49.01
49759;BME280;35654;46.080;11.118;2023-04-02T07:36:47;98773.34;;;11.55;48.64
49759;BME280;35654;46.080;11.118;2023-04-02T07:39:14;98777.91;;;11.68;47.43
49759;BME280;35654;46.080;11.118;2023-04-02T07:41:50;98782.19;;;11.83;46.70
49759;BME280;35654;46.080;11.118;2023-04-02T07:44:17;98772.25;;;12.04;46.66
49759;BME280;35654;46.080;11.118;2023-04-02T07:46:44;98778.25;;;12.23;45.80
49759;BME280;35654;46.080;11.118;2023-04-02T07:49:10;98776.19;;;12.38;45.38
49759;BME280;35654;46.080;11.118;2023-04-02T07:51:37;98770.06;;;12.66;44.75
49759;BME280;35654;46.080;11.118;2023-04-02T07:54:03;98773.47;;;12.89;44.41
49759;BME280;35654;46.080;11.118;2023-04-02T07:56:29;98771.69;;;13.10;43.59
49759;BME280;35654;46.080;11.118;2023-04-02T07:58:56;98767.28;;;13.26;43.51
49759;BME280;35654;46.080;11.118;2023-04-02T08:01:24;98774.22;;;13.41;43.25
49759;BME280;35654;46.080;11.118;2023-04-02T08:03:51;98764.19;;;13.45;42.56
49759;BME280;35654;46.080;11.118;2023-04-02T08:06:18;98769.53;;;13.41;42.59
49759;BME280;35654;46.080;11.118;2023-04-02T08:08:44;98759.16;;;13.47;42.81
49759;BME280;35654;46.080;11.118;2023-04-02T08:11:11;98760.53;;;13.70;42.77
49759;BME280;35654;46.080;11.118;2023-04-02T08:13:38;98764.69;;;13.76;42.10
49759;BME280;35654;46.080;11.118;2023-04-02T08:16:05;98766.50;;;13.72;41.72
49759;BME280;35654;46.080;11.118;2023-04-02T08:18:32;98763.56;;;13.77;41.84
49759;BME280;35654;46.080;11.118;2023-04-02T08:20:58;98760.81;;;13.77;41.99
49759;BME280;35654;46.080;11.118;2023-04-02T08:23:25;98758.56;;;13.71;41.75
49759;BME280;35654;46.080;11.118;2023-04-02T08:25:52;98764.38;;;13.78;41.74
49759;BME280;35654;46.080;11.118;2023-04-02T08:28:19;98757.19;;;13.94;41.05
49759;BME280;35654;46.080;11.118;2023-04-02T08:30:46;98760.66;;;13.74;40.94
49759;BME280;35654;46.080;11.118;2023-04-02T08:33:14;98756.41;;;13.85;41.06
49759;BME280;35654;46.080;11.118;2023-04-02T08:35:41;98759.22;;;14.06;41.42
49759;BME280;35654;46.080;11.118;2023-04-02T08:38:08;98752.03;;;14.13;40.57
49759;BME280;35654;46.080;11.118;2023-04-02T08:40:40;98753.31;;;14.16;40.62
49759;BME280;35654;46.080;11.118;2023-04-02T08:48:31;98751.44;;;14.57;39.79
49759;BME280;35654;46.080;11.118;2023-04-02T08:50:59;98743.72;;;14.72;39.37
49759;BME280;35654;46.080;11.118;2023-04-02T08:53:31;98748.03;;;14.81;38.75
49759;BME280;35654;46.080;11.118;2023-04-02T08:56:14;98742.19;;;14.62;39.33
49759;BME280;35654;46.080;11.118;2023-04-02T08:58:55;98740.84;;;14.68;38.70
49759;BME280;35654;46.080;11.118;2023-04-02T09:04:17;98730.81;;;14.84;37.77
49759;BME280;35654;46.080;11.118;2023-04-02T09:06:46;98732.81;;;14.96;37.85
49759;BME280;35654;46.080;11.118;2023-04-02T09:09:13;98738.88;;;15.22;37.61
49759;BME280;35654;46.080;11.118;2023-04-02T09:14:19;98730.00;;;15.16;36.82
49759;BME280;35654;46.080;11.118;2023-04-02T09:16:48;98732.03;;;15.40;36.29
49759;BME280;35654;46.080;11.118;2023-04-02T09:19:24;98732.25;;;15.35;36.27
49759;BME280;35654;46.080;11.118;2023-04-02T09:22:35;98718.69;;;15.42;36.42
49759;BME280;35654;46.080;11.118;2023-04-02T09:24:38;98725.75;;;15.64;35.34
49759;BME280;35654;46.080;11.118;2023-04-02T09:27:11;98725.88;;;15.92;33.84
49759;BME280;35654;46.080;11.118;2023-04-02T09:29:44;98720.72;;;16.02;33.40
49759;BME280;35654;46.080;11.118;2023-04-02T09:34:46;98718.81;;;16.55;33.04
49759;BME280;35654;46.080;11.118;2023-04-02T09:37:19;98718.97;;;16.74;32.30
49759;BME280;35654;46.080;11.118;2023-04-02T09:39:50;98724.56;;;16.89;31.23
49759;BME280;35654;46.080;11.118;2023-04-02T09:42:34;98718.94;;;16.86;31.31
49759;BME280;35654;46.080;11.118;2023-04-02T09:45:21;98720.59;;;16.75;31.19
49759;BME280;35654;46.080;11.118;2023-04-02T09:47:49;98719.88;;;16.78;31.13
49759;BME280;35654;46.080;11.118;2023-04-02T09:50:24;98718.38;;;17.08;31.03
49759;BME280;35654;46.080;11.118;2023-04-02T09:52:52;98706.63;;;17.42;30.43
49759;BME280;35654;46.080;11.118;2023-04-02T09:55:25;98707.19;;;17.48;29.61
49759;BME280;35654;46.080;11.118;2023-04-02T09:58:04;98714.03;;;17.66;28.86
49759;BME280;35654;46.080;11.118;2023-04-02T10:00:32;98703.28;;;17.80;28.71
49759;BME280;35654;46.080;11.118;2023-04-02T10:05:39;98706.94;;;17.84;28.18
49759;BME280;35654;46.080;11.118;2023-04-02T10:08:18;98700.69;;;18.03;27.33
49759;BME280;35654;46.080;11.118;2023-04-02T10:10:49;98709.59;;;18.47;27.42
49759;BME280;35654;46.080;11.118;2023-04-02T10:13:26;98707.97;;;19.00;26.76
49759;BME280;35654;46.080;11.118;2023-04-02T10:21:42;98691.03;;;17.81;27.65
49759;BME280;35654;46.080;11.118;2023-04-02T10:24:12;98684.03;;;18.38;27.44
49759;BME280;35654;46.080;11.118;2023-04-02T10:39:52;98667.19;;;20.17;22.45
49759;BME280;35654;46.080;11.118;2023-04-02T10:47:41;98663.19;;;24.10;18.75
49759;BME280;35654;46.080;11.118;2023-04-02T10:53:10;98667.41;;;28.41;14.65
49759;BME280;35654;46.080;11.118;2023-04-02T10:55:41;98663.00;;;29.90;13.58
49759;BME280;35654;46.080;11.118;2023-04-02T10:58:15;98657.56;;;29.12;13.77
49759;BME280;35654;46.080;11.118;2023-04-02T11:00:44;98650.34;;;31.01;12.32
49759;BME280;35654;46.080;11.118;2023-04-02T11:03:16;98649.69;;;29.91;12.04
49759;BME280;35654;46.080;11.118;2023-04-02T11:05:48;98642.41;;;27.50;14.07
49759;BME280;35654;46.080;11.118;2023-04-02T11:13:54;98639.66;;;29.38;12.82
49759;BME280;35654;46.080;11.118;2023-04-02T11:16:22;98641.47;;;29.96;11.93
49759;BME280;35654;46.080;11.118;2023-04-02T11:24:03;98630.84;;;28.80;13.19
49759;BME280;35654;46.080;11.118;2023-04-02T11:26:42;98629.50;;;29.92;11.92
49759;BME280;35654;46.080;11.118;2023-04-02T11:29:24;98634.25;;;29.95;11.45
49759;BME280;35654;46.080;11.118;2023-04-02T11:32:21;98627.25;;;27.94;12.28
49759;BME280;35654;46.080;11.118;2023-04-02T11:37:52;98640.03;;;26.21;14.27
49759;BME280;35654;46.080;11.118;2023-04-02T11:40:02;98626.50;;;25.02;14.74
49759;BME280;35654;46.080;11.118;2023-04-02T11:42:39;98633.09;;;27.00;13.40
49759;BME280;35654;46.080;11.118;2023-04-02T11:50:38;98635.25;;;25.08;15.37
49759;BME280;35654;46.080;11.118;2023-04-02T11:55:38;98640.22;;;21.58;17.93
49759;BME280;35654;46.080;11.118;2023-04-02T12:09:08;98671.25;;;26.97;19.05
49759;BME280;35654;46.080;11.118;2023-04-02T12:11:42;98656.31;;;26.70;20.34
49759;BME280;35654;46.080;11.118;2023-04-02T12:16:52;98678.63;;;26.47;21.40
49759;BME280;35654;46.080;11.118;2023-04-02T12:19:19;98671.88;;;27.42;20.59
49759;BME280;35654;46.080;11.118;2023-04-02T12:21:46;98680.13;;;26.21;21.29
49759;BME280;35654;46.080;11.118;2023-04-02T12:24:16;98679.91;;;25.43;22.27
49759;BME280;35654;46.080;11.118;2023-04-02T12:26:44;98683.09;;;25.41;22.26
49759;BME280;35654;46.080;11.118;2023-04-02T12:29:26;98671.38;;;26.09;21.63
49759;BME280;35654;46.080;11.118;2023-04-02T12:31:53;98664.94;;;26.52;21.10
49759;BME280;35654;46.080;11.118;2023-04-02T12:34:22;98676.53;;;26.92;20.98
49759;BME280;35654;46.080;11.118;2023-04-02T12:36:52;98682.69;;;27.70;20.16
49759;BME280;35654;46.080;11.118;2023-04-02T12:39:19;98678.50;;;27.55;20.07
49759;BME280;35654;46.080;11.118;2023-04-02T12:41:46;98687.50;;;28.20;19.54
49759;BME280;35654;46.080;11.118;2023-04-02T12:44:14;98693.22;;;29.22;18.67
49759;BME280;35654;46.080;11.118;2023-04-02T12:46:43;98693.00;;;28.50;18.82
49759;BME280;35654;46.080;11.118;2023-04-02T12:51:48;98697.63;;;25.22;21.49
49759;BME280;35654;46.080;11.118;2023-04-02T12:54:16;98696.38;;;25.27;21.93
49759;BME280;35654;46.080;11.118;2023-04-02T12:56:43;98706.09;;;25.12;21.92
49759;BME280;35654;46.080;11.118;2023-04-02T13:02:21;98709.78;;;23.29;24.55
49759;BME280;35654;46.080;11.118;2023-04-02T13:04:58;98696.91;;;22.89;27.16
49759;BME280;35654;46.080;11.118;2023-04-02T13:07:29;98701.91;;;23.76;26.71
49759;BME280;35654;46.080;11.118;2023-04-02T13:09:57;98689.94;;;22.61;28.39
49759;BME280;35654;46.080;11.118;2023-04-02T13:14:54;98685.50;;;23.43;27.71
49759;BME280;35654;46.080;11.118;2023-04-02T13:22:51;98678.50;;;26.95;23.25
49759;BME280;35654;46.080;11.118;2023-04-02T13:25:26;98677.16;;;23.64;27.42
49759;BME280;35654;46.080;11.118;2023-04-02T13:27:52;98687.66;;;22.81;27.99
49759;BME280;35654;46.080;11.118;2023-04-02T13:30:24;98688.81;;;21.20;30.53
49759;BME280;35654;46.080;11.118;2023-04-02T13:32:50;98683.19;;;20.83;31.03
49759;BME280;35654;46.080;11.118;2023-04-02T13:35:16;98686.69;;;20.21;32.12
49759;BME280;35654;46.080;11.118;2023-04-02T13:40:12;98692.97;;;21.37;30.81
49759;BME280;35654;46.080;11.118;2023-04-02T13:42:40;98690.31;;;20.81;31.50
49759;BME280;35654;46.080;11.118;2023-04-02T13:45:19;98698.81;;;20.62;31.46
49759;BME280;35654;46.080;11.118;2023-04-02T13:47:46;98690.47;;;22.81;28.53
49759;BME280;35654;46.080;11.118;2023-04-02T13:50:19;98683.84;;;26.48;24.25
49759;BME280;35654;46.080;11.118;2023-04-02T13:52:46;98688.16;;;24.92;26.28
49759;BME280;35654;46.080;11.118;2023-04-02T13:55:13;98670.78;;;25.28;25.88
49759;BME280;35654;46.080;11.118;2023-04-02T13:57:40;98675.69;;;22.74;28.48
49759;BME280;35654;46.080;11.118;2023-04-02T14:00:06;98682.16;;;21.32;31.07
49759;BME280;35654;46.080;11.118;2023-04-02T14:02:31;98677.91;;;23.44;27.74
49759;BME280;35654;46.080;11.118;2023-04-02T14:10:52;98674.25;;;26.83;23.22
49759;BME280;35654;46.080;11.118;2023-04-02T14:16:34;98663.00;;;26.83;23.57
49759;BME280;35654;46.080;11.118;2023-04-02T14:32:24;98675.56;;;23.63;27.27
49759;BME280;35654;46.080;11.118;2023-04-02T14:35:56;98677.44;;;23.17;28.38
49759;BME280;35654;46.080;11.118;2023-04-02T14:40:46;98677.38;;;22.99;27.14
49759;BME280;35654;46.080;11.118;2023-04-02T14:43:30;98668.34;;;23.55;26.52
49759;BME280;35654;46.080;11.118;2023-04-02T14:46:00;98675.56;;;24.16;27.10
49759;BME280;35654;46.080;11.118;2023-04-02T14:51:04;98670.34;;;24.22;27.03
49759;BME280;35654;46.080;11.118;2023-04-02T14:53:43;98677.56;;;24.23;27.28
49759;BME280;35654;46.080;11.118;2023-04-02T14:56:13;98675.41;;;23.00;28.74
49759;BME280;35654;46.080;11.118;2023-04-02T14:58:41;98665.06;;;23.11;28.68
49759;BME280;35654;46.080;11.118;2023-04-02T15:04:03;98671.00;;;24.72;26.66
49759;BME280;35654;46.080;11.118;2023-04-02T15:06:35;98661.44;;;24.73;26.92
49759;BME280;35654;46.080;11.118;2023-04-02T15:11:48;98679.25;;;25.14;26.02
49759;BME280;35654;46.080;11.118;2023-04-02T15:14:26;98682.75;;;23.89;27.68
49759;BME280;35654;46.080;11.118;2023-04-02T15:16:55;98675.16;;;21.48;31.11
49759;BME280;35654;46.080;11.118;2023-04-02T15:19:22;98689.41;;;21.07;31.69
49759;BME280;35654;46.080;11.118;2023-04-02T15:32:38;98693.28;;;18.99;35.52
49759;BME280;35654;46.080;11.118;2023-04-02T15:38:03;98687.88;;;18.68;36.28
49759;BME280;35654;46.080;11.118;2023-04-02T15:43:03;98690.44;;;18.57;36.81
49759;BME280;35654;46.080;11.118;2023-04-02T16:01:57;98675.44;;;23.14;28.79
49759;BME280;35654;46.080;11.118;2023-04-02T16:09:54;98672.13;;;24.99;26.22
49759;BME280;35654;46.080;11.118;2023-04-02T16:12:24;98690.66;;;24.58;26.53
49759;BME280;35654;46.080;11.118;2023-04-02T16:14:53;98684.09;;;26.24;24.75
49759;BME280;35654;46.080;11.118;2023-04-02T16:17:25;98678.94;;;25.71;24.78
49759;BME280;35654;46.080;11.118;2023-04-02T16:19:55;98672.25;;;24.60;26.49
49759;BME280;35654;46.080;11.118;2023-04-02T16:22:29;98687.16;;;25.30;25.70
49759;BME280;35654;46.080;11.118;2023-04-02T16:25:15;98685.53;;;25.94;24.93
49759;BME280;35654;46.080;11.118;2023-04-02T16:27:45;98699.38;;;24.95;26.11
49759;BME280;35654;46.080;11.118;2023-04-02T16:30:31;98696.28;;;23.41;27.25
49759;BME280;35654;46.080;11.118;2023-04-02T16:38:41;98694.50;;;21.75;29.38
49759;BME280;35654;46.080;11.118;2023-04-02T16:52:02;98714.72;;;18.45;34.32
49759;BME280;35654;46.080;11.118;2023-04-02T17:05:40;98740.94;;;17.38;37.00
49759;BME280;35654;46.080;11.118;2023-04-02T17:08:24;98738.69;;;17.00;37.52
49759;BME280;35654;46.080;11.118;2023-04-02T17:11:02;98748.56;;;16.85;37.86
49759;BME280;35654;46.080;11.118;2023-04-02T17:18:52;98762.22;;;16.42;37.80
49759;BME280;35654;46.080;11.118;2023-04-02T17:21:23;98763.81;;;16.43;38.19
49759;BME280;35654;46.080;11.118;2023-04-02T17:23:53;98767.53;;;16.35;38.10
49759;BME280;35654;46.080;11.118;2023-04-02T17:26:20;98768.22;;;16.20;38.62
49759;BME280;35654;46.080;11.118;2023-04-02T17:28:48;98771.00;;;16.08;38.72
49759;BME280;35654;46.080;11.118;2023-04-02T17:31:21;98779.50;;;16.03;38.64
49759;BME280;35654;46.080;11.118;2023-04-02T17:33:48;98766.72;;;15.98;38.67
49759;BME280;35654;46.080;11.118;2023-04-02T17:47:24;98797.63;;;15.67;39.70
49759;BME280;35654;46.080;11.118;2023-04-02T18:06:19;98830.81;;;15.26;40.78
49759;BME280;35654;46.080;11.118;2023-04-02T18:19:57;98853.44;;;14.99;40.77
49759;BME280;35654;46.080;11.118;2023-04-02T18:25:26;98866.41;;;14.98;40.70
49759;BME280;35654;46.080;11.118;2023-04-02T18:31:00;98878.19;;;14.87;40.59
49759;BME280;35654;46.080;11.118;2023-04-02T18:36:21;98878.84;;;14.84;40.60
49759;BME280;35654;46.080;11.118;2023-04-02T18:38:59;98890.06;;;14.79;40.96
49759;BME280;35654;46.080;11.118;2023-04-02T18:49:44;98907.28;;;14.76;40.18
49759;BME280;35654;46.080;11.118;2023-04-02T18:52:14;98908.28;;;14.71;40.64
49759;BME280;35654;46.080;11.118;2023-04-02T18:54:43;98919.78;;;14.73;40.62